sensor_id;sensor_type;location;lat;lon;timestamp;P1;durP1;ratioP1;P2;durP2;ratioP2
76846;SDS011;65813;49.546;8.644;2023-10-13T03:46:35;8.15;;;4.80;;
76846;SDS011;65813;49.546;8.644;2023-10-13T03:50:40;9.52;;;4.38;;
76846;SDS011;65813;49.546;8.644;2023-10-13T03:54:59;10.93;;;4.07;;
76846;SDS011;65813;49.546;8.644;2023-10-13T03:59:05;7.63;;;3.97;;
76846;SDS011;65813;49.546;8.644;2023-10-13T04:03:09;8.27;;;4.18;;
76846;SDS011;65813;49.546;8.644;2023-10-13T04:07:09;8.90;;;3.83;;
76846;SDS011;65813;49.546;8.644;2023-10-13T04:11:10;9.10;;;4.00;;
76846;SDS011;65813;49.546;8.644;2023-10-13T04:15:29;7.88;;;4.10;;
76846;SDS011;65813;49.546;8.644;2023-10-13T04:19:41;9.68;;;4.35;;
76846;SDS011;65813;49.546;8.644;2023-10-13T04:24:02;7.78;;;3.90;;
76846;SDS011;65813;49.546;8.644;2023-10-13T04:28:15;9.35;;;4.20;;
76846;SDS011;65813;49.546;8.644;2023-10-13T04:32:34;10.73;;;3.90;;
76846;SDS011;65813;49.546;8.644;2023-10-13T04:36:54;12.60;;;4.25;;
76846;SDS011;65813;49.546;8.644;2023-10-13T04:41:11;11.93;;;3.95;;
76846;SDS011;65813;49.546;8.644;2023-10-13T04:45:22;9.20;;;3.60;;
76846;SDS011;65813;49.546;8.644;2023-10-13T04:49:33;7.72;;;3.70;;
76846;SDS011;65813;49.546;8.644;2023-10-13T04:53:35;7.47;;;4.03;;
76846;SDS011;65813;49.546;8.644;2023-10-13T04:57:55;12.52;;;4.25;;
76846;SDS011;65813;49.546;8.644;2023-10-13T05:02:11;9.73;;;4.22;;
76846;SDS011;65813;49.546;8.644;2023-10-13T05:06:30;10.88;;;4.00;;
76846;SDS011;65813;49.546;8.644;2023-10-13T05:10:43;12.82;;;5.22;;
76846;SDS011;65813;49.546;8.644;2023-10-13T05:15:02;11.10;;;3.60;;
76846;SDS011;65813;49.546;8.644;2023-10-13T05:19:22;9.50;;;3.95;;
76846;SDS011;65813;49.546;8.644;2023-10-13T05:23:44;10.23;;;4.00;;
76846;SDS011;65813;49.546;8.644;2023-10-13T05:28:03;10.68;;;3.80;;
76846;SDS011;65813;49.546;8.644;2023-10-13T05:32:24;6.65;;;3.65;;
76846;SDS011;65813;49.546;8.644;2023-10-13T05:36:42;11.20;;;3.92;;
76846;SDS011;65813;49.546;8.644;2023-10-13T05:41:02;9.25;;;3.88;;
76846;SDS011;65813;49.546;8.644;2023-10-13T05:45:22;8.00;;;3.95;;
76846;SDS011;65813;49.546;8.644;2023-10-13T05:49:25;8.38;;;3.80;;
76846;SDS011;65813;49.546;8.644;2023-10-13T05:53:50;11.48;;;4.35;;
76846;SDS011;65813;49.546;8.644;2023-10-13T05:58:09;8.05;;;3.55;;
76846;SDS011;65813;49.546;8.644;2023-10-13T06:02:28;8.30;;;3.60;;
76846;SDS011;65813;49.546;8.644;2023-10-13T06:06:46;11.52;;;3.90;;
76846;SDS011;65813;49.546;8.644;2023-10-13T06:11:05;6.55;;;3.28;;
76846;SDS011;65813;49.546;8.644;2023-10-13T06:15:24;8.23;;;3.65;;
76846;SDS011;65813;49.546;8.644;2023-10-13T06:19:43;11.55;;;3.38;;
76846;SDS011;65813;49.546;8.644;2023-10-13T06:24:02;8.65;;;3.50;;
76846;SDS011;65813;49.546;8.644;2023-10-13T06:28:21;8.07;;;3.50;;
76846;SDS011;65813;49.546;8.644;2023-10-13T06:32:42;11.23;;;3.30;;
76846;SDS011;65813;49.546;8.644;2023-10-13T06:36:42;7.93;;;3.43;;
76846;SDS011;65813;49.546;8.644;2023-10-13T06:40:46;8.88;;;3.55;;
76846;SDS011;65813;49.546;8.644;2023-10-13T06:44:48;11.02;;;4.57;;
76846;SDS011;65813;49.546;8.644;2023-10-13T06:48:49;7.97;;;3.97;;
76846;SDS011;65813;49.546;8.644;2023-10-13T06:52:53;6.43;;;2.90;;
76846;SDS011;65813;49.546;8.644;2023-10-13T06:56:54;6.43;;;3.33;;
76846;SDS011;65813;49.546;8.644;2023-10-13T07:00:55;7.37;;;3.23;;
76846;SDS011;65813;49.546;8.644;2023-10-13T07:04:58;5.82;;;3.15;;
76846;SDS011;65813;49.546;8.644;2023-10-13T07:09:07;7.07;;;3.33;;
76846;SDS011;65813;49.546;8.644;2023-10-13T07:13:15;7.00;;;3.05;;
76846;SDS011;65813;49.546;8.644;2023-10-13T07:17:17;7.25;;;3.40;;
76846;SDS011;65813;49.546;8.644;2023-10-13T07:21:24;9.52;;;3.15;;
76846;SDS011;65813;49.546;8.644;2023-10-13T07:25:31;7.93;;;3.47;;
76846;SDS011;65813;49.546;8.644;2023-10-13T07:29:37;6.05;;;3.10;;
76846;SDS011;65813;49.546;8.644;2023-10-13T07:33:37;6.47;;;3.47;;
76846;SDS011;65813;49.546;8.644;2023-10-13T07:37:38;7.35;;;2.92;;
76846;SDS011;65813;49.546;8.644;2023-10-13T07:41:41;7.97;;;3.58;;
76846;SDS011;65813;49.546;8.644;2023-10-13T07:45:42;9.07;;;3.03;;
76846;SDS011;65813;49.546;8.644;2023-10-13T07:49:43;10.40;;;3.50;;
76846;SDS011;65813;49.546;8.644;2023-10-13T07:53:43;11.55;;;3.40;;
76846;SDS011;65813;49.546;8.644;2023-10-13T07:57:43;6.17;;;3.07;;
76846;SDS011;65813;49.546;8.644;2023-10-13T08:01:53;7.50;;;2.88;;
76846;SDS011;65813;49.546;8.644;2023-10-13T08:06:15;8.52;;;3.63;;
76846;SDS011;65813;49.546;8.644;2023-10-13T08:10:17;11.48;;;3.63;;
76846;SDS011;65813;49.546;8.644;2023-10-13T08:14:17;6.93;;;3.10;;
76846;SDS011;65813;49.546;8.644;2023-10-13T08:18:22;14.88;;;3.33;;
76846;SDS011;65813;49.546;8.644;2023-10-13T08:22:33;10.70;;;3.20;;
76846;SDS011;65813;49.546;8.644;2023-10-13T08:26:36;6.32;;;3.08;;
76846;SDS011;65813;49.546;8.644;2023-10-13T08:30:36;7.73;;;3.30;;
76846;SDS011;65813;49.546;8.644;2023-10-13T08:34:52;8.40;;;3.35;;
76846;SDS011;65813;49.546;8.644;2023-10-13T08:38:59;12.40;;;3.35;;
76846;SDS011;65813;49.546;8.644;2023-10-13T08:43:16;6.78;;;3.22;;
76846;SDS011;65813;49.546;8.644;2023-10-13T08:47:17;7.07;;;3.40;;
76846;SDS011;65813;49.546;8.644;2023-10-13T08:51:24;10.52;;;3.25;;
76846;SDS011;65813;49.546;8.644;2023-10-13T08:55:43;8.25;;;3.47;;
76846;SDS011;65813;49.546;8.644;2023-10-13T09:00:01;6.18;;;3.20;;
76846;SDS011;65813;49.546;8.644;2023-10-13T09:04:21;6.88;;;3.17;;
76846;SDS011;65813;49.546;8.644;2023-10-13T09:08:25;8.48;;;3.38;;
76846;SDS011;65813;49.546;8.644;2023-10-13T09:12:35;6.97;;;2.90;;
76846;SDS011;65813;49.546;8.644;2023-10-13T09:16:35;7.97;;;3.30;;
76846;SDS011;65813;49.546;8.644;2023-10-13T09:20:41;5.53;;;3.00;;
76846;SDS011;65813;49.546;8.644;2023-10-13T09:24:41;6.23;;;3.00;;
76846;SDS011;65813;49.546;8.644;2023-10-13T09:28:43;6.30;;;3.10;;
76846;SDS011;65813;49.546;8.644;2023-10-13T09:32:44;9.82;;;3.15;;
76846;SDS011;65813;49.546;8.644;2023-10-13T09:36:49;9.40;;;3.00;;
76846;SDS011;65813;49.546;8.644;2023-10-13T09:40:55;5.20;;;3.13;;
76846;SDS011;65813;49.546;8.644;2023-10-13T09:45:17;9.52;;;2.92;;
76846;SDS011;65813;49.546;8.644;2023-10-13T09:49:19;6.50;;;2.80;;
76846;SDS011;65813;49.546;8.644;2023-10-13T09:53:46;5.68;;;2.72;;
76846;SDS011;65813;49.546;8.644;2023-10-13T09:58:06;7.18;;;2.80;;
76846;SDS011;65813;49.546;8.644;2023-10-13T10:02:14;7.55;;;2.70;;
76846;SDS011;65813;49.546;8.644;2023-10-13T10:06:22;6.05;;;2.70;;
76846;SDS011;65813;49.546;8.644;2023-10-13T10:19:51;6.30;;;2.95;;
76846;SDS011;65813;49.546;8.644;2023-10-13T10:23:57;7.82;;;2.85;;
76846;SDS011;65813;49.546;8.644;2023-10-13T10:27:57;5.87;;;2.57;;
76846;SDS011;65813;49.546;8.644;2023-10-13T10:31:59;7.82;;;3.30;;
76846;SDS011;65813;49.546;8.644;2023-10-13T10:35:59;8.27;;;3.38;;
76846;SDS011;65813;49.546;8.644;2023-10-13T10:40:01;9.10;;;3.55;;
76846;SDS011;65813;49.546;8.644;2023-10-13T10:44:14;7.35;;;3.47;;
76846;SDS011;65813;49.546;8.644;2023-10-13T10:48:16;7.50;;;2.92;;
76846;SDS011;65813;49.546;8.644;2023-10-13T10:52:18;7.45;;;3.55;;
76846;SDS011;65813;49.546;8.644;2023-10-13T10:56:22;8.63;;;3.15;;
76846;SDS011;65813;49.546;8.644;2023-10-13T11:00:36;6.95;;;2.83;;
76846;SDS011;65813;49.546;8.644;2023-10-13T11:04:50;6.95;;;3.20;;
76846;SDS011;65813;49.546;8.644;2023-10-13T11:09:03;7.60;;;2.90;;
76846;SDS011;65813;49.546;8.644;2023-10-13T11:13:27;8.38;;;3.08;;
76846;SDS011;65813;49.546;8.644;2023-10-13T11:17:31;5.38;;;2.60;;
76846;SDS011;65813;49.546;8.644;2023-10-13T11:21:51;5.32;;;2.75;;
76846;SDS011;65813;49.546;8.644;2023-10-13T11:25:57;7.78;;;2.90;;
76846;SDS011;65813;49.546;8.644;2023-10-13T11:30:01;8.88;;;3.25;;
76846;SDS011;65813;49.546;8.644;2023-10-13T11:34:12;8.55;;;2.72;;
76846;SDS011;65813;49.546;8.644;2023-10-13T11:38:16;5.88;;;3.10;;
76846;SDS011;65813;49.546;8.644;2023-10-13T11:42:37;7.28;;;3.00;;
76846;SDS011;65813;49.546;8.644;2023-10-13T11:46:43;5.43;;;2.75;;
76846;SDS011;65813;49.546;8.644;2023-10-13T11:50:43;6.22;;;3.10;;
76846;SDS011;65813;49.546;8.644;2023-10-13T11:54:46;8.32;;;3.42;;
76846;SDS011;65813;49.546;8.644;2023-10-13T11:58:47;8.98;;;3.22;;
76846;SDS011;65813;49.546;8.644;2023-10-13T12:02:48;8.85;;;3.63;;
76846;SDS011;65813;49.546;8.644;2023-10-13T12:07:07;8.10;;;3.22;;
76846;SDS011;65813;49.546;8.644;2023-10-13T12:11:26;9.63;;;3.30;;
76846;SDS011;65813;49.546;8.644;2023-10-13T12:15:33;6.75;;;3.53;;
76846;SDS011;65813;49.546;8.644;2023-10-13T12:19:52;6.32;;;3.10;;
76846;SDS011;65813;49.546;8.644;2023-10-13T12:23:52;9.77;;;3.30;;
76846;SDS011;65813;49.546;8.644;2023-10-13T12:27:55;7.82;;;3.42;;
76846;SDS011;65813;49.546;8.644;2023-10-13T12:32:00;8.20;;;3.63;;
76846;SDS011;65813;49.546;8.644;2023-10-13T12:36:12;7.00;;;3.78;;
76846;SDS011;65813;49.546;8.644;2023-10-13T12:40:21;8.70;;;3.63;;
76846;SDS011;65813;49.546;8.644;2023-10-13T12:44:40;10.20;;;3.65;;
76846;SDS011;65813;49.546;8.644;2023-10-13T12:48:59;8.02;;;3.53;;
76846;SDS011;65813;49.546;8.644;2023-10-13T12:53:25;10.65;;;3.53;;
76846;SDS011;65813;49.546;8.644;2023-10-13T12:57:30;8.90;;;3.65;;
76846;SDS011;65813;49.546;8.644;2023-10-13T13:01:32;6.25;;;3.40;;
76846;SDS011;65813;49.546;8.644;2023-10-13T13:05:35;5.70;;;3.20;;
76846;SDS011;65813;49.546;8.644;2023-10-13T13:09:44;5.90;;;3.25;;
76846;SDS011;65813;49.546;8.644;2023-10-13T13:13:44;7.63;;;4.00;;
76846;SDS011;65813;49.546;8.644;2023-10-13T13:17:46;9.10;;;3.63;;
76846;SDS011;65813;49.546;8.644;2023-10-13T13:21:46;8.17;;;3.47;;
76846;SDS011;65813;49.546;8.644;2023-10-13T13:25:48;6.45;;;3.25;;
76846;SDS011;65813;49.546;8.644;2023-10-13T13:29:48;8.80;;;3.23;;
76846;SDS011;65813;49.546;8.644;2023-10-13T13:33:49;7.63;;;3.00;;
76846;SDS011;65813;49.546;8.644;2023-10-13T13:37:49;9.00;;;3.40;;
76846;SDS011;65813;49.546;8.644;2023-10-13T13:41:50;5.33;;;3.33;;
76846;SDS011;65813;49.546;8.644;2023-10-13T13:45:58;7.47;;;2.95;;
76846;SDS011;65813;49.546;8.644;2023-10-13T13:50:00;5.93;;;3.30;;
76846;SDS011;65813;49.546;8.644;2023-10-13T13:54:05;6.68;;;3.40;;
76846;SDS011;65813;49.546;8.644;2023-10-13T13:58:07;6.45;;;3.10;;
76846;SDS011;65813;49.546;8.644;2023-10-13T14:02:10;7.93;;;3.65;;
76846;SDS011;65813;49.546;8.644;2023-10-13T14:06:20;6.95;;;3.22;;
76846;SDS011;65813;49.546;8.644;2023-10-13T14:10:25;7.57;;;2.92;;
76846;SDS011;65813;49.546;8.644;2023-10-13T14:14:31;6.35;;;3.33;;
76846;SDS011;65813;49.546;8.644;2023-10-13T14:18:33;6.88;;;3.85;;
76846;SDS011;65813;49.546;8.644;2023-10-13T14:22:33;5.47;;;3.22;;
76846;SDS011;65813;49.546;8.644;2023-10-13T14:26:37;9.32;;;4.05;;
76846;SDS011;65813;49.546;8.644;2023-10-13T14:30:37;8.63;;;3.10;;
76846;SDS011;65813;49.546;8.644;2023-10-13T14:34:38;8.57;;;3.00;;
76846;SDS011;65813;49.546;8.644;2023-10-13T14:38:39;7.95;;;3.22;;
76846;SDS011;65813;49.546;8.644;2023-10-13T14:42:44;7.70;;;3.55;;
76846;SDS011;65813;49.546;8.644;2023-10-13T14:46:46;8.88;;;2.97;;
76846;SDS011;65813;49.546;8.644;2023-10-13T14:50:46;6.67;;;3.07;;
76846;SDS011;65813;49.546;8.644;2023-10-13T14:54:47;9.23;;;3.30;;
76846;SDS011;65813;49.546;8.644;2023-10-13T14:58:50;7.28;;;3.42;;
76846;SDS011;65813;49.546;8.644;2023-10-13T15:02:51;7.18;;;2.90;;
76846;SDS011;65813;49.546;8.644;2023-10-13T15:06:53;8.50;;;3.35;;
76846;SDS011;65813;49.546;8.644;2023-10-13T15:10:53;7.67;;;3.10;;
76846;SDS011;65813;49.546;8.644;2023-10-13T15:14:54;9.30;;;2.80;;
76846;SDS011;65813;49.546;8.644;2023-10-13T15:18:56;7.20;;;3.08;;
76846;SDS011;65813;49.546;8.644;2023-10-13T15:22:56;6.57;;;3.20;;
76846;SDS011;65813;49.546;8.644;2023-10-13T15:26:59;5.75;;;2.72;;
76846;SDS011;65813;49.546;8.644;2023-10-13T15:31:11;8.23;;;3.10;;
76846;SDS011;65813;49.546;8.644;2023-10-13T15:35:23;7.30;;;2.88;;
76846;SDS011;65813;49.546;8.644;2023-10-13T15:39:28;8.48;;;3.17;;
76846;SDS011;65813;49.546;8.644;2023-10-13T15:43:31;7.97;;;3.33;;
76846;SDS011;65813;49.546;8.644;2023-10-13T15:47:31;8.68;;;3.00;;
76846;SDS011;65813;49.546;8.644;2023-10-13T15:51:34;8.98;;;3.05;;
76846;SDS011;65813;49.546;8.644;2023-10-13T15:55:39;7.55;;;3.15;;
76846;SDS011;65813;49.546;8.644;2023-10-13T15:59:40;9.90;;;3.25;;
76846;SDS011;65813;49.546;8.644;2023-10-13T16:03:40;7.73;;;3.37;;
76846;SDS011;65813;49.546;8.644;2023-10-13T16:07:52;9.07;;;3.10;;
76846;SDS011;65813;49.546;8.644;2023-10-13T16:11:53;5.85;;;2.90;;
76846;SDS011;65813;49.546;8.644;2023-10-13T16:15:54;7.90;;;3.67;;
76846;SDS011;65813;49.546;8.644;2023-10-13T16:19:54;8.97;;;3.37;;
76846;SDS011;65813;49.546;8.644;2023-10-13T16:23:54;7.63;;;3.50;;
76846;SDS011;65813;49.546;8.644;2023-10-13T16:27:55;11.47;;;4.83;;
76846;SDS011;65813;49.546;8.644;2023-10-13T16:31:55;13.07;;;4.40;;
76846;SDS011;65813;49.546;8.644;2023-10-13T16:35:55;8.37;;;4.00;;
76846;SDS011;65813;49.546;8.644;2023-10-13T16:39:57;10.77;;;4.32;;
76846;SDS011;65813;49.546;8.644;2023-10-13T16:44:04;9.82;;;4.35;;
76846;SDS011;65813;49.546;8.644;2023-10-13T16:48:09;14.40;;;4.97;;
76846;SDS011;65813;49.546;8.644;2023-10-13T16:56:13;8.73;;;3.83;;
76846;SDS011;65813;49.546;8.644;2023-10-13T17:00:13;8.30;;;3.67;;
76846;SDS011;65813;49.546;8.644;2023-10-13T17:04:14;7.03;;;3.00;;
76846;SDS011;65813;49.546;8.644;2023-10-13T17:08:19;5.57;;;3.00;;
76846;SDS011;65813;49.546;8.644;2023-10-13T17:12:19;9.63;;;3.97;;
76846;SDS011;65813;49.546;8.644;2023-10-13T17:16:23;14.30;;;4.97;;
76846;SDS011;65813;49.546;8.644;2023-10-13T17:24:24;8.45;;;2.90;;
76846;SDS011;65813;49.546;8.644;2023-10-13T17:28:25;5.67;;;3.10;;
76846;SDS011;65813;49.546;8.644;2023-10-13T17:32:25;10.23;;;2.85;;
76846;SDS011;65813;49.546;8.644;2023-10-13T17:36:26;9.35;;;3.05;;
76846;SDS011;65813;49.546;8.644;2023-10-13T17:40:29;8.13;;;3.08;;
76846;SDS011;65813;49.546;8.644;2023-10-13T17:44:30;9.18;;;2.50;;
76846;SDS011;65813;49.546;8.644;2023-10-13T17:48:31;6.13;;;2.40;;
76846;SDS011;65813;49.546;8.644;2023-10-13T17:52:31;5.93;;;3.13;;
76846;SDS011;65813;49.546;8.644;2023-10-13T17:56:32;9.40;;;2.70;;
76846;SDS011;65813;49.546;8.644;2023-10-13T18:00:32;9.93;;;2.80;;
76846;SDS011;65813;49.546;8.644;2023-10-13T18:04:33;5.95;;;2.63;;
76846;SDS011;65813;49.546;8.644;2023-10-13T18:08:33;8.05;;;3.25;;
76846;SDS011;65813;49.546;8.644;2023-10-13T18:12:34;8.60;;;2.85;;
76846;SDS011;65813;49.546;8.644;2023-10-13T18:16:36;7.97;;;3.10;;
76846;SDS011;65813;49.546;8.644;2023-10-13T18:20:37;6.20;;;2.72;;
76846;SDS011;65813;49.546;8.644;2023-10-13T18:24:38;4.93;;;2.28;;
76846;SDS011;65813;49.546;8.644;2023-10-13T18:28:40;5.00;;;2.60;;
76846;SDS011;65813;49.546;8.644;2023-10-13T18:32:41;7.30;;;3.63;;
76846;SDS011;65813;49.546;8.644;2023-10-13T18:36:43;8.73;;;3.15;;
76846;SDS011;65813;49.546;8.644;2023-10-13T18:40:54;6.97;;;2.80;;
76846;SDS011;65813;49.546;8.644;2023-10-13T18:44:56;5.40;;;2.65;;
76846;SDS011;65813;49.546;8.644;2023-10-13T18:48:56;5.70;;;2.10;;
76846;SDS011;65813;49.546;8.644;2023-10-13T18:53:01;6.57;;;2.10;;
76846;SDS011;65813;49.546;8.644;2023-10-13T18:57:02;6.35;;;2.10;;
76846;SDS011;65813;49.546;8.644;2023-10-13T19:01:10;6.72;;;2.30;;
76846;SDS011;65813;49.546;8.644;2023-10-13T19:05:24;5.93;;;2.45;;
76846;SDS011;65813;49.546;8.644;2023-10-13T19:09:25;5.45;;;2.10;;
76846;SDS011;65813;49.546;8.644;2023-10-13T19:13:27;5.88;;;2.28;;
76846;SDS011;65813;49.546;8.644;2023-10-13T19:17:28;6.72;;;2.28;;
76846;SDS011;65813;49.546;8.644;2023-10-13T19:21:28;4.18;;;2.05;;
76846;SDS011;65813;49.546;8.644;2023-10-13T19:25:33;5.65;;;2.38;;
76846;SDS011;65813;49.546;8.644;2023-10-13T19:29:34;5.90;;;2.38;;
76846;SDS011;65813;49.546;8.644;2023-10-13T19:33:34;7.73;;;2.30;;
76846;SDS011;65813;49.546;8.644;2023-10-13T19:37:34;5.07;;;2.30;;
76846;SDS011;65813;49.546;8.644;2023-10-13T19:41:42;6.18;;;2.30;;
76846;SDS011;65813;49.546;8.644;2023-10-13T19:45:43;5.97;;;2.60;;
76846;SDS011;65813;49.546;8.644;2023-10-13T19:49:44;4.72;;;1.98;;
76846;SDS011;65813;49.546;8.644;2023-10-13T19:53:45;7.15;;;2.42;;
76846;SDS011;65813;49.546;8.644;2023-10-13T19:57:46;4.40;;;2.20;;
76846;SDS011;65813;49.546;8.644;2023-10-13T20:01:47;5.63;;;1.80;;
76846;SDS011;65813;49.546;8.644;2023-10-13T20:05:49;6.65;;;1.83;;
76846;SDS011;65813;49.546;8.644;2023-10-13T20:09:54;5.35;;;2.30;;
76846;SDS011;65813;49.546;8.644;2023-10-13T20:13:54;4.65;;;2.13;;
76846;SDS011;65813;49.546;8.644;2023-10-13T20:17:57;7.28;;;2.55;;
76846;SDS011;65813;49.546;8.644;2023-10-13T20:21:58;5.78;;;2.53;;
76846;SDS011;65813;49.546;8.644;2023-10-13T20:26:06;4.95;;;1.80;;
76846;SDS011;65813;49.546;8.644;2023-10-13T20:30:06;4.60;;;2.10;;
76846;SDS011;65813;49.546;8.644;2023-10-13T20:34:10;7.72;;;2.25;;
76846;SDS011;65813;49.546;8.644;2023-10-13T20:38:12;4.80;;;1.80;;
76846;SDS011;65813;49.546;8.644;2023-10-13T20:42:13;5.13;;;2.17;;
76846;SDS011;65813;49.546;8.644;2023-10-13T20:46:15;6.13;;;2.65;;
76846;SDS011;65813;49.546;8.644;2023-10-13T20:50:20;4.82;;;2.00;;
76846;SDS011;65813;49.546;8.644;2023-10-13T20:54:21;5.20;;;1.80;;
76846;SDS011;65813;49.546;8.644;2023-10-13T20:58:22;7.30;;;2.23;;
76846;SDS011;65813;49.546;8.644;2023-10-13T21:02:24;3.25;;;1.85;;
76846;SDS011;65813;49.546;8.644;2023-10-13T21:06:24;6.33;;;2.30;;
76846;SDS011;65813;49.546;8.644;2023-10-13T21:10:25;5.97;;;2.00;;
76846;SDS011;65813;49.546;8.644;2023-10-13T21:14:25;6.07;;;2.03;;
